Portada
METAR-TAF:

METAR-TAF

Aeropuertos :

Aeropuerto Internacional de Limón

Limón, Costa Rica

latitud: 10-00N, longitud: 083-03W, altitud: 5 m

Observación

El informe se hizo hace 5 horas y 27 minutos, a las 00:00 UTC
Viento 2 kt del oeste
Temperatura 26°C
Humedad 89%
Presión 1011 hPa
Visibilidad 10 km o más
Escasas nubes a una altura de 2000 ft
Cielo nuboso a una altura de 22000 ft

METAR: MRLM 230000Z 26002KT 9999 FEW020 BKN220 26/24 A2984

Hora: 23:27 (05:27 UTC)

Pronóstico

El informe se hizo hace 6 horas y 27 minutos, a las 23:00 UTC
Pronóstico válido del 23 a las 00 UTC al 23 a las 24 UTC
Viento 4 kt del oeste-suroeste
Visibilidad 10 km o más
Escasas nubes a una altura de 2500 ft
Evolucionando progresivamente
del 23 a las 14 UTC al 23 a las 16 UTC
Viento 6 kt del norte-noreste

TAF: MRLM 222300Z 2300/2324 24004KT 9999 FEW025 TX31/2318Z TN22/2312Z BECMG 2314/2316 02006KT

Observaciones y pronósticos meteorológicos de más de 4000 aeropuertos (mensajes METAR y TAF).

Los puntos amarillos y rojos representan las estaciones disponibles.

Ponga el ratón en el punto deseado para ver el nombre de la estación.

Haga clic para ver las observaciones y los pronósticos meteorológicos.

Para cambiar el mapa : haga clic en los botones verdes con una cruz de color negro para hacer un zoom, en el botón verde con un guión para alejar o en las flechas verdes para mapas adyacentes.


METAR-TAF: